Time;durP1;ratioP1;P1;durP2;ratioP2;P2;SDS_P1;SDS_P2;PMS_P1;PMS_P2;Temp;Humidity;BMP_temperature;BMP_pressure;BME280_temperature;BME280_humidity;BME280_pressure;Samples;Min_cycle;Max_cycle;Signal;HPM_P1;HPM_P2
2024/02/25 00:00:36;;;;;;;4.20;3.47;;;21.60;55.50;;;;;;5073078;28;20170;-69
2024/02/25 00:03:02;;;;;;;6.73;4.40;;;21.60;55.60;;;;;;5073188;28;20707;-69
2024/02/25 00:05:29;;;;;;;3.73;2.97;;;21.60;55.50;;;;;;5073747;28;20522;-69
2024/02/25 00:07:55;;;;;;;3.80;3.33;;;21.60;55.50;;;;;;5074788;28;20641;-69
2024/02/25 00:10:20;;;;;;;5.03;3.30;;;21.60;55.50;;;;;;5074953;28;20508;-69
2024/02/25 00:12:46;;;;;;;4.17;3.20;;;21.60;55.50;;;;;;5072746;28;20198;-69
2024/02/25 00:15:11;;;;;;;6.30;3.40;;;21.60;55.50;;;;;;5074610;28;20216;-68
2024/02/25 00:17:37;;;;;;;5.10;3.83;;;21.60;55.60;;;;;;5073577;28;20178;-68
2024/02/25 00:20:04;;;;;;;3.93;3.33;;;21.60;55.60;;;;;;5074035;28;20308;-69
2024/02/25 00:22:29;;;;;;;3.70;3.20;;;21.60;55.60;;;;;;5072135;28;20236;-69
2024/02/25 00:24:55;;;;;;;4.53;3.30;;;21.60;55.60;;;;;;5072916;28;20463;-68
2024/02/25 00:27:20;;;;;;;5.00;2.93;;;21.60;55.60;;;;;;5072514;28;20207;-69
2024/02/25 00:29:46;;;;;;;4.70;3.17;;;21.60;55.60;;;;;;5072755;28;20182;-69
2024/02/25 00:32:12;;;;;;;4.10;2.97;;;21.60;55.60;;;;;;5072812;28;20255;-68
2024/02/25 00:34:38;;;;;;;7.00;3.60;;;21.60;55.60;;;;;;5073307;28;20221;-69
2024/02/25 00:37:04;;;;;;;5.33;3.00;;;21.60;55.60;;;;;;5072821;28;20178;-69
2024/02/25 00:39:30;;;;;;;3.50;2.80;;;21.60;55.60;;;;;;5072587;28;20417;-68
2024/02/25 00:41:57;;;;;;;4.27;3.03;;;21.60;55.60;;;;;;5072943;28;20209;-67
2024/02/25 00:44:23;;;;;;;5.10;2.90;;;21.60;55.60;;;;;;5072738;28;20178;-69
2024/02/25 00:46:48;;;;;;;3.73;2.90;;;21.60;55.60;;;;;;5072718;28;20419;-70
2024/02/25 00:49:14;;;;;;;3.80;2.77;;;21.60;55.60;;;;;;5072985;28;20258;-68
2024/02/25 00:51:39;;;;;;;3.93;2.50;;;21.60;55.60;;;;;;5073232;28;20858;-69
2024/02/25 00:54:05;;;;;;;4.27;3.20;;;21.60;55.60;;;;;;5072367;28;20214;-69
2024/02/25 00:56:31;;;;;;;6.47;4.00;;;21.60;55.60;;;;;;5072643;28;20178;-69
2024/02/25 00:58:57;;;;;;;3.87;2.80;;;21.60;55.60;;;;;;5072856;28;20180;-69
2024/02/25 01:01:22;;;;;;;4.57;3.63;;;21.60;55.60;;;;;;5073000;28;20492;-70
2024/02/25 01:03:48;;;;;;;3.90;3.00;;;21.60;55.60;;;;;;5072557;28;20251;-70
2024/02/25 01:06:14;;;;;;;4.30;2.97;;;21.50;55.60;;;;;;5073039;28;20885;-70
2024/02/25 01:08:39;;;;;;;4.20;3.13;;;21.50;55.60;;;;;;5073446;28;20170;-70
2024/02/25 01:11:11;;;;;;;3.53;2.90;;;21.50;55.60;;;;;;5070938;28;20182;-70
2024/02/25 01:13:37;;;;;;;2.97;2.67;;;21.50;55.60;;;;;;5072750;28;20596;-69
2024/02/25 01:16:03;;;;;;;3.57;2.43;;;21.50;55.60;;;;;;5073034;28;20511;-70
2024/02/25 01:18:33;;;;;;;3.63;2.70;;;21.50;55.60;;;;;;5072820;28;20213;-70
2024/02/25 01:20:58;;;;;;;4.27;2.80;;;21.50;55.60;;;;;;5072922;28;20409;-70
2024/02/25 01:23:24;;;;;;;4.57;2.60;;;21.50;55.60;;;;;;5072802;28;20493;-71
2024/02/25 01:25:51;;;;;;;3.80;3.30;;;21.50;55.60;;;;;;5072882;28;20201;-70
2024/02/25 01:28:16;;;;;;;4.20;2.73;;;21.50;55.60;;;;;;5072972;28;20427;-69
2024/02/25 01:30:42;;;;;;;3.67;2.40;;;21.60;55.60;;;;;;5072368;28;20405;-68
2024/02/25 01:33:08;;;;;;;3.80;2.80;;;21.50;55.60;;;;;;5072392;28;20688;-69
2024/02/25 01:35:34;;;;;;;5.60;3.57;;;21.50;55.60;;;;;;5072862;28;20724;-70
2024/02/25 01:37:59;;;;;;;4.73;3.00;;;21.50;55.60;;;;;;5073827;28;20487;-70
2024/02/25 01:40:25;;;;;;;4.00;2.97;;;21.50;55.60;;;;;;5076729;28;20184;-69
2024/02/25 01:43:11;;;;;;;3.80;3.00;;;21.50;55.60;;;;;;5076627;28;20741;-71
2024/02/25 01:45:37;;;;;;;3.17;2.77;;;21.50;55.60;;;;;;5077321;28;20169;-69
2024/02/25 01:48:04;;;;;;;4.13;3.13;;;21.50;55.60;;;;;;5076814;28;20434;-68
2024/02/25 01:50:32;;;;;;;2.70;2.30;;;21.50;55.60;;;;;;5076518;28;20812;-68
2024/02/25 01:52:58;;;;;;;3.00;2.70;;;21.50;55.60;;;;;;5076081;28;20448;-68
2024/02/25 01:55:25;;;;;;;3.70;2.40;;;21.50;55.60;;;;;;5076750;28;20443;-69
2024/02/25 01:57:53;;;;;;;3.40;2.50;;;21.50;55.60;;;;;;5076341;28;20919;-68
2024/02/25 02:00:19;;;;;;;3.00;2.70;;;21.50;55.60;;;;;;5076230;28;20408;-69
2024/02/25 02:02:44;;;;;;;3.87;2.70;;;21.50;55.60;;;;;;5075898;28;20531;-68
2024/02/25 02:05:10;;;;;;;3.20;2.50;;;21.50;55.60;;;;;;5076486;28;20428;-68
2024/02/25 02:07:39;;;;;;;3.10;2.80;;;21.50;55.60;;;;;;5074809;28;20260;-69
2024/02/25 02:10:08;;;;;;;3.30;2.93;;;21.50;55.60;;;;;;5075981;28;20189;-69
2024/02/25 02:12:41;;;;;;;2.97;2.50;;;21.50;55.60;;;;;;5076108;28;20895;-69
2024/02/25 02:15:08;;;;;;;3.07;2.77;;;21.50;55.60;;;;;;5075626;28;20986;-68
2024/02/25 02:17:34;;;;;;;2.70;2.33;;;21.50;55.60;;;;;;5074193;28;20511;-69
2024/02/25 02:20:04;;;;;;;3.03;2.40;;;21.50;55.60;;;;;;5075650;28;20966;-67
2024/02/25 02:22:30;;;;;;;6.43;3.63;;;21.50;55.70;;;;;;5076007;28;20750;-69
2024/02/25 02:24:55;;;;;;;2.80;2.10;;;21.50;55.70;;;;;;5075375;28;20416;-68
2024/02/25 02:27:21;;;;;;;3.10;2.30;;;21.50;55.60;;;;;;5074468;28;20404;-68
2024/02/25 02:29:47;;;;;;;3.87;2.40;;;21.50;55.70;;;;;;5074372;28;20281;-69
2024/02/25 02:32:12;;;;;;;3.50;2.47;;;21.50;55.70;;;;;;5075510;28;20657;-69
2024/02/25 02:34:39;;;;;;;3.50;2.63;;;21.50;55.70;;;;;;5074944;28;20248;-69
2024/02/25 02:37:04;;;;;;;3.03;2.70;;;21.50;55.70;;;;;;5075314;28;20236;-69
2024/02/25 02:39:30;;;;;;;3.60;2.50;;;21.50;55.70;;;;;;5075135;28;20405;-68
2024/02/25 02:41:56;;;;;;;2.17;1.97;;;21.50;55.70;;;;;;5075186;28;20257;-69
2024/02/25 02:44:22;;;;;;;3.40;2.73;;;21.50;55.70;;;;;;5075391;28;20170;-69
2024/02/25 02:46:47;;;;;;;3.70;2.97;;;21.50;55.70;;;;;;5075161;28;20465;-69
2024/02/25 02:49:13;;;;;;;3.97;2.77;;;21.50;55.70;;;;;;5074871;28;20261;-69
2024/02/25 02:51:39;;;;;;;3.60;2.93;;;21.50;55.70;;;;;;5075218;28;20175;-69
2024/02/25 02:54:04;;;;;;;4.07;2.73;;;21.50;55.70;;;;;;5075078;28;20209;-68
2024/02/25 02:56:32;;;;;;;3.47;2.47;;;21.50;55.70;;;;;;5073579;28;20177;-69
2024/02/25 02:58:57;;;;;;;3.77;3.00;;;21.50;55.70;;;;;;5075321;28;20569;-69
2024/02/25 03:01:23;;;;;;;3.67;2.73;;;21.40;55.60;;;;;;5074943;28;20417;-68
2024/02/25 03:03:49;;;;;;;3.60;2.97;;;21.40;55.60;;;;;;5074770;28;20186;-69
2024/02/25 03:06:17;;;;;;;3.73;2.60;;;21.40;55.60;;;;;;5074760;28;20185;-70
2024/02/25 03:08:43;;;;;;;3.53;2.37;;;21.40;55.60;;;;;;5074755;28;20743;-68
2024/02/25 03:11:09;;;;;;;4.30;2.60;;;21.40;55.60;;;;;;5075077;28;20462;-69
2024/02/25 03:13:34;;;;;;;3.43;2.70;;;21.50;55.70;;;;;;5074613;28;20202;-69
2024/02/25 03:16:03;;;;;;;3.50;2.37;;;21.40;55.60;;;;;;5074940;28;20220;-69
2024/02/25 03:18:28;;;;;;;3.53;2.60;;;21.40;55.60;;;;;;5073938;28;20178;-69
2024/02/25 03:20:54;;;;;;;3.53;3.07;;;21.40;55.60;;;;;;5074875;28;20411;-69
2024/02/25 03:23:20;;;;;;;2.83;2.63;;;21.40;55.60;;;;;;5074501;28;20197;-67
2024/02/25 03:25:45;;;;;;;3.57;2.83;;;21.40;55.60;;;;;;5074675;28;20257;-69
2024/02/25 03:28:11;;;;;;;2.90;2.37;;;21.40;55.60;;;;;;5074338;28;20636;-67
2024/02/25 03:30:37;;;;;;;3.23;2.40;;;21.40;55.60;;;;;;5074078;28;20178;-69
2024/02/25 03:33:05;;;;;;;2.87;2.23;;;21.40;55.60;;;;;;5073623;28;20197;-68
2024/02/25 03:35:32;;;;;;;5.37;2.70;;;21.40;55.60;;;;;;5074245;28;20174;-68
2024/02/25 03:37:57;;;;;;;3.63;2.50;;;21.40;55.60;;;;;;5074367;28;20409;-70
2024/02/25 03:40:23;;;;;;;3.20;2.30;;;21.40;55.60;;;;;;5074617;28;20859;-68
2024/02/25 03:42:49;;;;;;;3.33;2.67;;;21.40;55.60;;;;;;5074547;28;20187;-68
2024/02/25 03:45:17;;;;;;;4.23;2.30;;;21.40;55.60;;;;;;5073927;28;20170;-68
2024/02/25 03:47:43;;;;;;;3.40;2.80;;;21.40;55.60;;;;;;5073679;28;20249;-69
2024/02/25 03:50:10;;;;;;;3.60;2.53;;;21.40;55.60;;;;;;5071916;28;20425;-69
2024/02/25 03:52:37;;;;;;;3.13;2.30;;;21.40;55.60;;;;;;5072933;28;20424;-69
2024/02/25 03:55:03;;;;;;;3.43;2.77;;;21.40;55.70;;;;;;5072682;28;20869;-68
2024/02/25 03:57:28;;;;;;;2.67;2.00;;;21.40;55.70;;;;;;5071158;28;20420;-68
2024/02/25 03:59:54;;;;;;;4.00;2.73;;;21.40;55.70;;;;;;5072405;28;20450;-69
2024/02/25 04:02:20;;;;;;;3.40;2.20;;;21.30;55.60;;;;;;5071843;28;20236;-69
2024/02/25 04:04:46;;;;;;;2.90;2.23;;;21.40;55.70;;;;;;5072300;28;20171;-70
2024/02/25 04:07:13;;;;;;;2.60;2.10;;;21.30;55.60;;;;;;5072274;28;20204;-69
2024/02/25 04:09:39;;;;;;;3.17;2.03;;;21.40;55.70;;;;;;5072368;28;20417;-68
2024/02/25 04:12:06;;;;;;;2.57;2.10;;;21.30;55.60;;;;;;5071987;28;20433;-68
2024/02/25 04:14:31;;;;;;;2.33;1.90;;;21.30;55.60;;;;;;5072348;28;20460;-68
2024/02/25 04:16:57;;;;;;;3.00;1.87;;;21.30;55.60;;;;;;5072609;28;20473;-69
2024/02/25 04:19:23;;;;;;;2.93;2.30;;;21.30;55.60;;;;;;5072235;28;20728;-68
2024/02/25 04:21:49;;;;;;;4.73;2.30;;;21.30;55.60;;;;;;5072309;28;20171;-69
2024/02/25 04:24:14;;;;;;;3.97;2.53;;;21.40;55.70;;;;;;5072302;28;20548;-68
2024/02/25 04:26:44;;;;;;;2.97;2.33;;;21.30;55.60;;;;;;5072089;28;21011;-69
2024/02/25 04:29:10;;;;;;;3.47;2.30;;;21.40;55.70;;;;;;5072110;28;20170;-69
2024/02/25 04:31:41;;;;;;;4.53;2.47;;;21.30;55.60;;;;;;5071931;28;20930;-69
2024/02/25 04:34:06;;;;;;;3.07;2.13;;;21.30;55.60;;;;;;5071762;28;20204;-69
2024/02/25 04:36:32;;;;;;;3.23;2.50;;;21.30;55.60;;;;;;5071946;28;20400;-67
2024/02/25 04:38:57;;;;;;;2.87;2.40;;;21.30;55.60;;;;;;5071984;28;20170;-69
2024/02/25 04:41:23;;;;;;;3.13;2.43;;;21.30;55.90;;;;;;5071591;28;20522;-68
2024/02/25 04:43:48;;;;;;;2.20;2.00;;;21.30;55.60;;;;;;5071550;28;20248;-69
2024/02/25 04:46:14;;;;;;;3.47;2.87;;;21.30;55.60;;;;;;5071788;28;20174;-67
2024/02/25 04:48:40;;;;;;;2.83;2.53;;;21.30;55.60;;;;;;5071644;28;20167;-68
2024/02/25 04:51:05;;;;;;;2.40;2.20;;;21.30;55.60;;;;;;5071761;28;20170;-68
2024/02/25 04:53:31;;;;;;;2.90;2.23;;;21.30;55.70;;;;;;5071416;28;20289;-69
2024/02/25 04:55:57;;;;;;;2.90;2.13;;;21.30;55.70;;;;;;5071360;28;20181;-68
2024/02/25 04:58:22;;;;;;;2.83;2.13;;;21.30;55.70;;;;;;5071185;28;20193;-67
2024/02/25 05:00:48;;;;;;;2.50;2.30;;;21.30;55.70;;;;;;5071339;28;20170;-68
2024/02/25 05:03:13;;;;;;;3.03;2.43;;;21.30;55.70;;;;;;5071108;28;20736;-69
2024/02/25 05:05:39;;;;;;;2.37;1.80;;;21.30;55.70;;;;;;5071314;28;20170;-68
2024/02/25 05:08:05;;;;;;;2.83;1.93;;;21.30;55.70;;;;;;5071509;28;20657;-67
2024/02/25 05:10:30;;;;;;;4.10;2.23;;;21.30;55.70;;;;;;5071411;28;20710;-68
2024/02/25 05:12:56;;;;;;;2.70;1.97;;;21.30;55.70;;;;;;5069808;28;20194;-69
2024/02/25 05:15:22;;;;;;;2.83;2.23;;;21.30;55.70;;;;;;5071464;28;20189;-69
2024/02/25 05:17:47;;;;;;;3.70;2.10;;;21.30;55.70;;;;;;5071434;28;20193;-69
2024/02/25 05:20:14;;;;;;;2.90;2.60;;;21.30;55.70;;;;;;5071742;28;20187;-69
2024/02/25 05:22:39;;;;;;;2.83;2.20;;;21.30;55.70;;;;;;5071396;28;20189;-68
2024/02/25 05:25:05;;;;;;;3.10;2.30;;;21.30;55.70;;;;;;5070993;28;20918;-69
2024/02/25 05:27:36;;;;;;;3.17;2.10;;;21.30;55.70;;;;;;5071524;28;20177;-69
2024/02/25 05:30:05;;;;;;;3.37;2.30;;;21.30;55.70;;;;;;5071319;28;20645;-69
2024/02/25 05:32:31;;;;;;;2.47;2.10;;;21.20;55.60;;;;;;5071030;28;20947;-69
2024/02/25 05:34:56;;;;;;;2.67;1.90;;;21.30;55.70;;;;;;5071261;28;20463;-68
2024/02/25 05:37:22;;;;;;;2.40;2.03;;;21.30;55.70;;;;;;5071142;28;20173;-69
2024/02/25 05:39:50;;;;;;;3.23;2.30;;;21.20;55.60;;;;;;5071111;28;20167;-69
2024/02/25 05:42:16;;;;;;;3.30;1.80;;;21.30;55.70;;;;;;5070894;28;20416;-69
2024/02/25 05:44:41;;;;;;;3.00;1.83;;;21.30;55.70;;;;;;5071021;28;20415;-69
2024/02/25 05:47:07;;;;;;;3.60;2.30;;;21.20;55.60;;;;;;5071155;28;20224;-69
2024/02/25 05:49:33;;;;;;;4.13;2.00;;;21.20;55.60;;;;;;5071223;28;20248;-69
2024/02/25 05:51:58;;;;;;;2.80;2.17;;;21.20;55.60;;;;;;5070939;28;20254;-69
2024/02/25 05:54:24;;;;;;;3.00;2.33;;;21.20;55.60;;;;;;5070904;28;20210;-70
2024/02/25 05:56:49;;;;;;;4.10;2.27;;;21.30;55.70;;;;;;5071315;28;20166;-69
2024/02/25 05:59:15;;;;;;;2.63;1.90;;;21.20;55.60;;;;;;5069636;28;20182;-69
2024/02/25 06:01:50;;;;;;;2.27;1.70;;;21.20;55.60;;;;;;5070946;28;20182;-69
2024/02/25 06:04:21;;;;;;;2.70;2.10;;;21.20;55.70;;;;;;5070956;28;20158;-70
2024/02/25 06:06:53;;;;;;;2.27;1.77;;;21.20;55.60;;;;;;5070830;28;20419;-70
2024/02/25 06:09:19;;;;;;;2.70;2.07;;;21.20;55.70;;;;;;5070746;28;20850;-69
2024/02/25 06:11:47;;;;;;;3.90;2.30;;;21.20;55.60;;;;;;5070743;28;20453;-69
2024/02/25 06:14:12;;;;;;;3.47;2.50;;;21.20;55.60;;;;;;5070720;28;20247;-69
2024/02/25 06:16:38;;;;;;;2.80;1.93;;;21.20;55.60;;;;;;5070629;28;20421;-69
2024/02/25 06:19:04;;;;;;;2.43;1.90;;;21.20;55.60;;;;;;5070575;28;20277;-70
2024/02/25 06:21:29;;;;;;;3.03;2.03;;;21.20;55.60;;;;;;5070659;28;20175;-70
2024/02/25 06:23:55;;;;;;;2.63;2.10;;;21.20;55.60;;;;;;5071676;28;20194;-70
2024/02/25 06:26:21;;;;;;;3.80;2.27;;;21.30;55.70;;;;;;5074424;28;20174;-70
2024/02/25 06:28:46;;;;;;;2.37;2.00;;;21.20;55.70;;;;;;5074430;28;20170;-69
2024/02/25 06:31:12;;;;;;;2.60;1.67;;;21.20;55.70;;;;;;5074107;28;20710;-69
2024/02/25 06:33:37;;;;;;;4.40;1.87;;;21.20;55.60;;;;;;5073933;28;20213;-70
2024/02/25 06:36:03;;;;;;;2.10;1.90;;;21.20;55.70;;;;;;5074001;28;20253;-70
2024/02/25 06:38:29;;;;;;;2.20;2.00;;;21.30;55.70;;;;;;5074178;28;20233;-69
2024/02/25 06:40:55;;;;;;;4.30;2.00;;;21.30;55.70;;;;;;5072380;28;21053;-69
2024/02/25 06:43:23;;;;;;;2.70;1.77;;;21.30;55.70;;;;;;5074250;28;20194;-69
2024/02/25 06:45:48;;;;;;;2.30;1.67;;;21.30;55.80;;;;;;5074297;28;20417;-69
2024/02/25 06:48:14;;;;;;;1.93;1.60;;;21.30;55.70;;;;;;5074064;28;20961;-69
2024/02/25 06:50:40;;;;;;;2.80;2.03;;;21.30;55.70;;;;;;5073714;28;20163;-69
2024/02/25 06:53:05;;;;;;;2.20;2.00;;;21.30;55.70;;;;;;5073725;28;20224;-69
2024/02/25 06:55:31;;;;;;;2.50;2.00;;;21.30;55.70;;;;;;5073841;28;20166;-69
2024/02/25 06:57:56;;;;;;;2.43;1.70;;;21.30;55.70;;;;;;5073992;28;20197;-70
2024/02/25 07:00:22;;;;;;;2.00;1.80;;;21.30;55.70;;;;;;5073778;28;20217;-70
2024/02/25 07:02:48;;;;;;;2.90;2.03;;;21.30;55.70;;;;;;5073475;28;20200;-69
2024/02/25 07:05:13;;;;;;;2.47;2.10;;;21.30;55.70;;;;;;5073753;28;20771;-70
2024/02/25 07:07:39;;;;;;;1.87;1.60;;;21.30;55.70;;;;;;5073641;28;20653;-70
2024/02/25 07:10:06;;;;;;;2.17;1.60;;;21.30;55.70;;;;;;5073369;28;20186;-70
2024/02/25 07:12:31;;;;;;;3.27;1.80;;;21.30;55.70;;;;;;5073310;28;20685;-69
2024/02/25 07:14:57;;;;;;;2.20;1.87;;;21.30;55.70;;;;;;5071739;28;20475;-70
2024/02/25 07:17:23;;;;;;;2.00;1.80;;;21.30;55.70;;;;;;5073465;28;20174;-69
2024/02/25 07:19:48;;;;;;;2.83;2.03;;;21.30;55.70;;;;;;5072972;28;20684;-70
2024/02/25 07:22:14;;;;;;;2.97;1.87;;;21.30;55.70;;;;;;5072804;28;20186;-69
2024/02/25 07:24:41;;;;;;;4.47;1.60;;;21.30;55.70;;;;;;5072821;28;20217;-69
2024/02/25 07:27:06;;;;;;;3.03;1.70;;;21.30;55.70;;;;;;5072963;28;20166;-70
2024/02/25 07:29:32;;;;;;;2.40;2.03;;;21.30;55.70;;;;;;5073021;28;20767;-69
2024/02/25 07:31:58;;;;;;;3.27;2.30;;;21.30;55.60;;;;;;5072814;28;20177;-69
2024/02/25 07:34:24;;;;;;;2.53;1.90;;;21.30;55.50;;;;;;5072481;28;20456;-69
2024/02/25 07:36:50;;;;;;;3.23;2.10;;;21.30;55.20;;;;;;5071927;28;20649;-68
2024/02/25 07:39:16;;;;;;;1.97;1.77;;;21.30;54.90;;;;;;5072700;28;20409;-70
2024/02/25 07:41:43;;;;;;;3.10;1.87;;;21.30;54.60;;;;;;5072571;28;20649;-69
2024/02/25 07:44:10;;;;;;;1.97;1.77;;;21.30;54.70;;;;;;5072751;28;20194;-69
2024/02/25 07:46:36;;;;;;;2.60;1.97;;;21.30;54.90;;;;;;5073029;28;20923;-69
2024/02/25 07:49:02;;;;;;;2.13;1.60;;;21.30;55.10;;;;;;5072936;28;20465;-69
2024/02/25 07:51:33;;;;;;;1.80;1.63;;;21.30;55.20;;;;;;5072363;28;20170;-69
2024/02/25 07:53:58;;;;;;;2.30;1.93;;;21.30;55.30;;;;;;5072506;28;20452;-70
2024/02/25 07:56:24;;;;;;;1.80;1.50;;;21.30;55.30;;;;;;5072397;28;20974;-70
2024/02/25 07:58:49;;;;;;;5.13;2.30;;;21.30;55.40;;;;;;5072545;28;20170;-70
2024/02/25 08:01:15;;;;;;;3.00;2.03;;;21.30;55.40;;;;;;5071162;28;20178;-70
2024/02/25 08:03:41;;;;;;;2.63;1.90;;;21.30;55.40;;;;;;5072678;28;20202;-69
2024/02/25 08:06:07;;;;;;;2.63;1.90;;;21.30;55.50;;;;;;5072155;28;20409;-70
2024/02/25 08:08:32;;;;;;;1.80;1.57;;;21.30;55.50;;;;;;5070811;28;20217;-69
2024/02/25 08:10:58;;;;;;;2.70;1.43;;;21.30;55.50;;;;;;5072026;28;20178;-69
2024/02/25 08:13:24;;;;;;;3.60;2.07;;;21.30;55.50;;;;;;5072149;28;20202;-70
2024/02/25 08:15:49;;;;;;;3.03;2.00;;;21.30;55.50;;;;;;5072371;28;20194;-69
2024/02/25 08:18:15;;;;;;;3.53;1.80;;;21.30;55.50;;;;;;5071761;28;20218;-69
2024/02/25 08:20:40;;;;;;;2.47;1.63;;;21.30;55.50;;;;;;5071971;28;20178;-69
2024/02/25 08:23:06;;;;;;;1.60;1.43;;;21.30;55.50;;;;;;5071804;28;20210;-70
2024/02/25 08:25:31;;;;;;;2.90;1.77;;;21.30;55.50;;;;;;5072129;28;20189;-69
2024/02/25 08:27:57;;;;;;;1.87;1.50;;;21.30;55.50;;;;;;5071708;28;20202;-69
2024/02/25 08:30:24;;;;;;;3.50;2.17;;;21.30;55.60;;;;;;5071983;28;20178;-69
2024/02/25 08:32:50;;;;;;;3.47;1.73;;;21.30;55.50;;;;;;5071552;28;20194;-69
2024/02/25 08:35:15;;;;;;;3.60;1.77;;;21.30;55.50;;;;;;5071647;28;20460;-70
2024/02/25 08:37:41;;;;;;;2.67;1.93;;;21.40;55.60;;;;;;5071715;28;20428;-69
2024/02/25 08:40:08;;;;;;;3.10;1.70;;;21.40;55.60;;;;;;5071404;28;20163;-70
2024/02/25 08:42:34;;;;;;;2.20;1.67;;;21.40;55.60;;;;;;5071558;28;20190;-69
2024/02/25 08:45:00;;;;;;;3.13;2.00;;;21.40;55.60;;;;;;5071755;28;20448;-69
2024/02/25 08:47:25;;;;;;;2.23;1.80;;;21.40;55.60;;;;;;5071416;28;20178;-70
2024/02/25 08:49:51;;;;;;;2.43;1.90;;;21.40;55.60;;;;;;5071963;28;20189;-69
2024/02/25 08:52:18;;;;;;;2.23;1.43;;;21.40;55.60;;;;;;5071790;28;20197;-69
2024/02/25 08:54:44;;;;;;;2.37;1.50;;;21.40;55.60;;;;;;5071481;28;20463;-69
2024/02/25 08:57:09;;;;;;;2.67;2.13;;;21.40;55.60;;;;;;5071511;28;20405;-70
2024/02/25 08:59:35;;;;;;;1.80;1.40;;;21.40;55.50;;;;;;5071805;28;20212;-69
2024/02/25 09:02:04;;;;;;;2.03;1.70;;;21.40;55.50;;;;;;5071412;28;20177;-70
2024/02/25 09:04:30;;;;;;;2.50;1.67;;;21.40;55.50;;;;;;5070222;28;20178;-69
2024/02/25 09:06:57;;;;;;;1.90;1.50;;;21.40;55.60;;;;;;5071409;28;20408;-70
2024/02/25 09:09:23;;;;;;;2.33;1.30;;;21.40;55.50;;;;;;5071711;28;20483;-69
2024/02/25 09:11:49;;;;;;;1.90;1.60;;;21.40;55.50;;;;;;5069981;28;20432;-69
2024/02/25 09:14:14;;;;;;;1.37;1.10;;;21.40;55.50;;;;;;5071517;28;20197;-70
2024/02/25 09:16:40;;;;;;;2.37;1.60;;;21.40;55.50;;;;;;5071740;28;20163;-70
2024/02/25 09:19:05;;;;;;;2.23;1.63;;;21.40;55.40;;;;;;5071699;28;20228;-69
2024/02/25 09:21:31;;;;;;;2.57;1.60;;;21.40;55.40;;;;;;5071263;28;20204;-70
2024/02/25 09:23:57;;;;;;;1.70;1.53;;;21.40;55.40;;;;;;5071814;28;20256;-68
2024/02/25 09:26:23;;;;;;;2.10;1.70;;;21.40;55.50;;;;;;5071992;28;20584;-70
2024/02/25 09:28:48;;;;;;;2.40;1.93;;;21.40;55.50;;;;;;5071430;28;20417;-70
2024/02/25 09:31:21;;;;;;;1.60;1.33;;;21.40;55.50;;;;;;5071335;28;20583;-69
2024/02/25 09:33:50;;;;;;;2.10;1.50;;;21.40;55.50;;;;;;5071340;28;20202;-70
2024/02/25 09:36:22;;;;;;;2.13;1.50;;;21.40;55.60;;;;;;5071440;28;20428;-70
2024/02/25 09:38:49;;;;;;;4.23;2.10;;;21.40;55.60;;;;;;5072035;28;20393;-69
2024/02/25 09:41:18;;;;;;;2.97;1.90;;;21.40;55.60;;;;;;5071613;28;20409;-68
2024/02/25 09:43:44;;;;;;;1.93;1.47;;;21.40;55.60;;;;;;5071557;28;20810;-70
2024/02/25 09:46:10;;;;;;;1.70;1.40;;;21.40;55.60;;;;;;5071602;28;20411;-68
2024/02/25 09:48:37;;;;;;;2.17;1.30;;;21.40;55.60;;;;;;5071259;28;20183;-69
2024/02/25 09:51:03;;;;;;;1.73;1.20;;;21.50;55.70;;;;;;5071384;28;20424;-68
2024/02/25 09:53:30;;;;;;;1.33;1.13;;;21.40;55.50;;;;;;5071423;28;20460;-69
2024/02/25 09:55:56;;;;;;;1.83;1.50;;;21.40;55.50;;;;;;5072041;28;20556;-69
2024/02/25 09:58:21;;;;;;;2.10;1.57;;;21.40;55.50;;;;;;5072028;28;20408;-69
2024/02/25 10:00:47;;;;;;;2.60;1.90;;;21.50;55.60;;;;;;5075291;28;20408;-68
2024/02/25 10:03:13;;;;;;;2.00;1.77;;;21.40;55.50;;;;;;5075140;28;20201;-69
2024/02/25 10:05:41;;;;;;;2.13;1.33;;;21.50;55.60;;;;;;5074953;28;20178;-70
2024/02/25 10:08:11;;;;;;;1.83;1.60;;;21.40;55.50;;;;;;5075126;28;20405;-70
2024/02/25 10:10:41;;;;;;;2.50;1.43;;;21.50;55.70;;;;;;5075352;28;20404;-70
2024/02/25 10:13:08;;;;;;;2.50;1.47;;;21.50;55.70;;;;;;5075311;28;20436;-70
2024/02/25 10:15:33;;;;;;;2.00;1.40;;;21.40;55.60;;;;;;5075208;28;20400;-70
2024/02/25 10:18:00;;;;;;;1.57;1.30;;;21.40;55.60;;;;;;5075179;28;20435;-70
2024/02/25 10:20:26;;;;;;;2.27;1.40;;;21.50;55.70;;;;;;5074971;28;20540;-69
2024/02/25 10:23:07;;;;;;;1.70;1.20;;;21.50;55.70;;;;;;5075018;28;20448;-69
2024/02/25 10:25:32;;;;;;;1.40;1.20;;;21.50;55.70;;;;;;5075169;28;20797;-69
2024/02/25 10:28:11;;;;;;;2.13;1.50;;;21.50;55.70;;;;;;5074996;28;20409;-69
2024/02/25 10:30:37;;;;;;;1.60;1.30;;;21.50;55.60;;;;;;5074604;28;20224;-69
2024/02/25 10:33:21;;;;;;;3.63;1.10;;;21.50;55.70;;;;;;5074728;28;20432;-69
2024/02/25 10:35:46;;;;;;;2.03;1.20;;;21.50;55.60;;;;;;5073420;28;20178;-70
2024/02/25 10:38:13;;;;;;;1.50;1.10;;;21.50;55.70;;;;;;5074695;28;20412;-70
2024/02/25 10:40:42;;;;;;;1.57;1.30;;;21.50;55.70;;;;;;5074364;28;20170;-69
2024/02/25 10:43:12;;;;;;;1.77;1.30;;;21.50;55.60;;;;;;5074910;28;20420;-69
2024/02/25 10:45:42;;;;;;;1.40;1.23;;;21.50;55.70;;;;;;5074938;28;20487;-69
2024/02/25 10:48:11;;;;;;;2.10;1.43;;;21.50;55.70;;;;;;5073681;28;20437;-67
2024/02/25 10:50:40;;;;;;;3.40;1.60;;;21.50;55.70;;;;;;5074706;28;20405;-70
2024/02/25 10:53:10;;;;;;;1.70;1.27;;;21.40;55.60;;;;;;5074543;28;20803;-69
2024/02/25 10:55:37;;;;;;;1.97;1.50;;;21.40;55.60;;;;;;5074598;28;20416;-69
2024/02/25 10:58:05;;;;;;;1.70;1.40;;;21.40;55.60;;;;;;5074364;28;20528;-69
2024/02/25 11:00:30;;;;;;;2.67;1.13;;;21.40;55.60;;;;;;5074624;28;20409;-69
2024/02/25 11:02:57;;;;;;;1.87;1.40;;;21.40;55.60;;;;;;5072891;28;20935;-70
2024/02/25 11:05:22;;;;;;;1.67;1.30;;;21.40;55.60;;;;;;5074435;28;20174;-69
2024/02/25 11:07:49;;;;;;;1.53;1.43;;;21.40;55.70;;;;;;5074203;28;20422;-69
2024/02/25 11:10:21;;;;;;;1.70;1.43;;;21.40;55.70;;;;;;5074020;28;20256;-69
2024/02/25 11:12:51;;;;;;;1.57;1.40;;;21.40;55.70;;;;;;5072723;28;20958;-69
2024/02/25 11:15:21;;;;;;;1.90;1.40;;;21.40;55.70;;;;;;5074063;28;20459;-70
2024/02/25 11:17:49;;;;;;;1.77;1.40;;;21.40;55.70;;;;;;5074109;28;21032;-70
2024/02/25 11:20:22;;;;;;;2.80;1.87;;;21.40;55.70;;;;;;5074479;28;20389;-70
2024/02/25 11:22:49;;;;;;;1.80;1.40;;;21.40;55.70;;;;;;5074293;28;20857;-69
2024/02/25 11:25:30;;;;;;;2.13;1.53;;;21.40;55.70;;;;;;5074589;28;20898;-69
2024/02/25 11:28:09;;;;;;;2.90;1.60;;;21.40;55.70;;;;;;5074421;28;20440;-70
2024/02/25 11:30:39;;;;;;;2.17;1.50;;;21.40;55.70;;;;;;5073795;28;20416;-69
2024/02/25 11:33:27;;;;;;;1.70;1.40;;;21.40;55.70;;;;;;5074031;28;20521;-70
2024/02/25 11:35:57;;;;;;;2.10;1.40;;;21.40;55.70;;;;;;5074170;28;20416;-69
2024/02/25 11:38:23;;;;;;;1.53;1.40;;;21.40;55.70;;;;;;5073459;28;20417;-70
2024/02/25 11:40:51;;;;;;;2.27;1.47;;;21.40;55.80;;;;;;5073639;28;20935;-70
2024/02/25 11:43:17;;;;;;;2.10;1.50;;;21.40;55.80;;;;;;5073506;28;20510;-69
2024/02/25 11:45:42;;;;;;;1.43;1.10;;;21.40;55.80;;;;;;5073078;28;20902;-69
2024/02/25 11:48:08;;;;;;;1.87;1.33;;;21.40;55.70;;;;;;5074146;28;20175;-70
2024/02/25 11:50:34;;;;;;;1.40;1.10;;;21.40;55.60;;;;;;5073544;28;20163;-70
2024/02/25 11:53:03;;;;;;;1.33;1.10;;;21.50;55.70;;;;;;5071179;28;20440;-68
2024/02/25 11:55:28;;;;;;;1.87;1.23;;;21.40;55.70;;;;;;5073919;28;20206;-69
2024/02/25 11:57:55;;;;;;;2.50;1.50;;;21.50;55.80;;;;;;5073658;28;20416;-70
2024/02/25 12:00:22;;;;;;;1.97;1.50;;;21.50;55.90;;;;;;5073268;28;20174;-69
2024/02/25 12:02:48;;;;;;;2.13;1.30;;;21.50;55.90;;;;;;5073832;28;20535;-69
2024/02/25 12:05:15;;;;;;;1.90;1.57;;;21.50;55.90;;;;;;5073620;28;20435;-69
2024/02/25 12:07:42;;;;;;;2.60;1.63;;;21.50;55.90;;;;;;5073301;28;20412;-69
2024/02/25 12:10:08;;;;;;;2.13;1.47;;;21.50;55.90;;;;;;5073202;28;20491;-70
2024/02/25 12:12:34;;;;;;;2.07;1.57;;;21.50;55.90;;;;;;5072951;28;20464;-70
2024/02/25 12:15:00;;;;;;;1.30;1.20;;;21.50;55.90;;;;;;5072822;28;20483;-66
2024/02/25 12:17:26;;;;;;;2.23;1.60;;;21.50;55.80;;;;;;5073284;28;20166;-68
2024/02/25 12:19:53;;;;;;;1.63;1.53;;;21.50;55.80;;;;;;5072736;28;20420;-70
2024/02/25 12:22:22;;;;;;;2.57;1.80;;;21.50;55.80;;;;;;5072058;28;20202;-70
2024/02/25 12:24:52;;;;;;;2.47;2.00;;;21.50;55.90;;;;;;5072780;28;20946;-70
2024/02/25 12:27:22;;;;;;;2.53;2.13;;;21.50;55.80;;;;;;5071481;28;20417;-69
2024/02/25 12:29:50;;;;;;;2.90;2.33;;;21.50;55.80;;;;;;5072603;28;20408;-70
2024/02/25 12:32:17;;;;;;;5.40;2.80;;;21.50;55.80;;;;;;5072711;28;20428;-69
2024/02/25 12:34:44;;;;;;;6.50;2.93;;;21.50;55.70;;;;;;5072668;28;20605;-69
2024/02/25 12:37:13;;;;;;;5.20;3.17;;;21.50;56.30;;;;;;5071361;28;20961;-70
2024/02/25 12:39:42;;;;;;;3.90;2.90;;;21.50;55.70;;;;;;5072614;28;20412;-69
2024/02/25 12:42:11;;;;;;;6.53;3.40;;;21.50;55.70;;;;;;5073267;28;20424;-69
2024/02/25 12:44:36;;;;;;;6.80;4.37;;;21.50;55.80;;;;;;5072620;28;20409;-69